sensor_id;sensor_type;location;lat;lon;timestamp;P1;durP1;ratioP1;P2;durP2;ratioP2
46290;SDS011;32023;44.444;26.006;2024-01-30T00:00:18;26.98;;;14.80;;
46290;SDS011;32023;44.444;26.006;2024-01-30T00:02:45;29.77;;;16.85;;
46290;SDS011;32023;44.444;26.006;2024-01-30T00:05:12;34.30;;;16.80;;
46290;SDS011;32023;44.444;26.006;2024-01-30T00:07:39;25.40;;;14.27;;
46290;SDS011;32023;44.444;26.006;2024-01-30T00:10:05;21.60;;;13.13;;
46290;SDS011;32023;44.444;26.006;2024-01-30T00:12:31;22.85;;;13.30;;
46290;SDS011;32023;44.444;26.006;2024-01-30T00:14:58;23.40;;;13.02;;
46290;SDS011;32023;44.444;26.006;2024-01-30T00:17:30;25.15;;;13.93;;
46290;SDS011;32023;44.444;26.006;2024-01-30T00:19:57;23.85;;;13.05;;
46290;SDS011;32023;44.444;26.006;2024-01-30T00:22:23;25.13;;;13.65;;
46290;SDS011;32023;44.444;26.006;2024-01-30T00:24:49;24.63;;;14.52;;
46290;SDS011;32023;44.444;26.006;2024-01-30T00:27:16;26.10;;;14.48;;
46290;SDS011;32023;44.444;26.006;2024-01-30T00:29:42;25.05;;;14.63;;
46290;SDS011;32023;44.444;26.006;2024-01-30T00:32:08;25.25;;;14.18;;
46290;SDS011;32023;44.444;26.006;2024-01-30T00:34:35;26.70;;;14.30;;
46290;SDS011;32023;44.444;26.006;2024-01-30T00:37:01;23.77;;;14.07;;
46290;SDS011;32023;44.444;26.006;2024-01-30T00:39:27;27.73;;;15.07;;
46290;SDS011;32023;44.444;26.006;2024-01-30T00:41:55;32.63;;;14.90;;
46290;SDS011;32023;44.444;26.006;2024-01-30T00:44:23;26.83;;;15.07;;
46290;SDS011;32023;44.444;26.006;2024-01-30T00:46:49;28.08;;;13.75;;
46290;SDS011;32023;44.444;26.006;2024-01-30T00:49:17;26.70;;;14.30;;
46290;SDS011;32023;44.444;26.006;2024-01-30T00:51:43;28.45;;;14.15;;
46290;SDS011;32023;44.444;26.006;2024-01-30T00:54:12;25.67;;;13.93;;
46290;SDS011;32023;44.444;26.006;2024-01-30T00:56:39;30.10;;;14.85;;
46290;SDS011;32023;44.444;26.006;2024-01-30T00:59:05;28.23;;;14.18;;
46290;SDS011;32023;44.444;26.006;2024-01-30T01:01:33;25.95;;;14.77;;
46290;SDS011;32023;44.444;26.006;2024-01-30T01:04:00;24.48;;;13.45;;
46290;SDS011;32023;44.444;26.006;2024-01-30T01:06:27;27.70;;;15.07;;
46290;SDS011;32023;44.444;26.006;2024-01-30T01:08:53;23.95;;;14.55;;
46290;SDS011;32023;44.444;26.006;2024-01-30T01:11:19;32.55;;;16.42;;
46290;SDS011;32023;44.444;26.006;2024-01-30T01:13:46;29.48;;;15.77;;
46290;SDS011;32023;44.444;26.006;2024-01-30T01:16:12;26.23;;;14.35;;
46290;SDS011;32023;44.444;26.006;2024-01-30T01:18:39;31.45;;;17.45;;
46290;SDS011;32023;44.444;26.006;2024-01-30T01:21:05;29.77;;;15.77;;
46290;SDS011;32023;44.444;26.006;2024-01-30T01:23:31;27.63;;;14.93;;
46290;SDS011;32023;44.444;26.006;2024-01-30T01:25:58;27.27;;;14.40;;
46290;SDS011;32023;44.444;26.006;2024-01-30T01:28:26;27.98;;;15.32;;
46290;SDS011;32023;44.444;26.006;2024-01-30T01:30:52;29.33;;;14.30;;
46290;SDS011;32023;44.444;26.006;2024-01-30T01:33:18;28.83;;;16.35;;
46290;SDS011;32023;44.444;26.006;2024-01-30T01:35:45;27.95;;;14.60;;
46290;SDS011;32023;44.444;26.006;2024-01-30T01:38:11;29.45;;;15.10;;
46290;SDS011;32023;44.444;26.006;2024-01-30T01:40:37;26.10;;;14.93;;
46290;SDS011;32023;44.444;26.006;2024-01-30T01:43:04;27.20;;;14.80;;
46290;SDS011;32023;44.444;26.006;2024-01-30T01:45:31;29.10;;;15.88;;
46290;SDS011;32023;44.444;26.006;2024-01-30T01:47:57;27.40;;;14.95;;
46290;SDS011;32023;44.444;26.006;2024-01-30T01:50:23;30.83;;;14.40;;
46290;SDS011;32023;44.444;26.006;2024-01-30T01:52:51;26.83;;;14.70;;
46290;SDS011;32023;44.444;26.006;2024-01-30T01:55:18;27.63;;;15.60;;
46290;SDS011;32023;44.444;26.006;2024-01-30T01:57:52;25.17;;;14.02;;
46290;SDS011;32023;44.444;26.006;2024-01-30T02:00:19;23.70;;;14.38;;
46290;SDS011;32023;44.444;26.006;2024-01-30T02:02:45;26.52;;;14.48;;
46290;SDS011;32023;44.444;26.006;2024-01-30T02:05:14;26.70;;;16.17;;
46290;SDS011;32023;44.444;26.006;2024-01-30T02:07:40;29.27;;;15.05;;
46290;SDS011;32023;44.444;26.006;2024-01-30T02:10:08;24.55;;;13.68;;
46290;SDS011;32023;44.444;26.006;2024-01-30T02:12:37;25.63;;;15.27;;
46290;SDS011;32023;44.444;26.006;2024-01-30T02:15:05;29.65;;;15.23;;
46290;SDS011;32023;44.444;26.006;2024-01-30T02:17:34;30.48;;;16.33;;
46290;SDS011;32023;44.444;26.006;2024-01-30T02:20:00;26.80;;;14.93;;
46290;SDS011;32023;44.444;26.006;2024-01-30T02:22:26;28.52;;;13.68;;
46290;SDS011;32023;44.444;26.006;2024-01-30T02:24:53;23.77;;;12.98;;
46290;SDS011;32023;44.444;26.006;2024-01-30T02:27:19;25.38;;;14.23;;
46290;SDS011;32023;44.444;26.006;2024-01-30T02:29:45;24.65;;;14.07;;
46290;SDS011;32023;44.444;26.006;2024-01-30T02:32:12;56.78;;;35.10;;
46290;SDS011;32023;44.444;26.006;2024-01-30T02:34:38;34.63;;;21.40;;
46290;SDS011;32023;44.444;26.006;2024-01-30T02:37:04;31.67;;;16.08;;
46290;SDS011;32023;44.444;26.006;2024-01-30T02:39:32;26.77;;;14.07;;
46290;SDS011;32023;44.444;26.006;2024-01-30T02:41:58;27.63;;;14.23;;
46290;SDS011;32023;44.444;26.006;2024-01-30T02:44:25;28.45;;;14.82;;
46290;SDS011;32023;44.444;26.006;2024-01-30T02:46:51;29.63;;;14.55;;
46290;SDS011;32023;44.444;26.006;2024-01-30T02:49:19;32.85;;;16.65;;
46290;SDS011;32023;44.444;26.006;2024-01-30T02:51:46;28.00;;;16.33;;
46290;SDS011;32023;44.444;26.006;2024-01-30T02:54:13;35.17;;;19.05;;
46290;SDS011;32023;44.444;26.006;2024-01-30T02:56:39;43.20;;;24.27;;
46290;SDS011;32023;44.444;26.006;2024-01-30T02:59:07;43.33;;;24.30;;
46290;SDS011;32023;44.444;26.006;2024-01-30T03:01:33;30.58;;;17.77;;
46290;SDS011;32023;44.444;26.006;2024-01-30T03:04:07;29.02;;;14.77;;
46290;SDS011;32023;44.444;26.006;2024-01-30T03:06:33;27.25;;;14.55;;
46290;SDS011;32023;44.444;26.006;2024-01-30T03:08:59;27.48;;;14.65;;
46290;SDS011;32023;44.444;26.006;2024-01-30T03:11:26;30.85;;;15.98;;
46290;SDS011;32023;44.444;26.006;2024-01-30T03:13:52;32.15;;;15.35;;
46290;SDS011;32023;44.444;26.006;2024-01-30T03:16:18;28.42;;;15.98;;
46290;SDS011;32023;44.444;26.006;2024-01-30T03:18:44;32.42;;;16.65;;
46290;SDS011;32023;44.444;26.006;2024-01-30T03:21:11;33.75;;;17.98;;
46290;SDS011;32023;44.444;26.006;2024-01-30T03:23:37;38.65;;;20.52;;
46290;SDS011;32023;44.444;26.006;2024-01-30T03:26:03;38.88;;;20.02;;
46290;SDS011;32023;44.444;26.006;2024-01-30T03:28:31;45.70;;;23.63;;
46290;SDS011;32023;44.444;26.006;2024-01-30T03:30:58;45.70;;;22.75;;
46290;SDS011;32023;44.444;26.006;2024-01-30T03:33:24;44.72;;;23.88;;
46290;SDS011;32023;44.444;26.006;2024-01-30T03:35:50;36.80;;;20.73;;
46290;SDS011;32023;44.444;26.006;2024-01-30T03:38:17;40.58;;;22.85;;
46290;SDS011;32023;44.444;26.006;2024-01-30T03:40:43;43.58;;;23.20;;
46290;SDS011;32023;44.444;26.006;2024-01-30T03:43:09;36.00;;;20.25;;
46290;SDS011;32023;44.444;26.006;2024-01-30T03:45:35;41.13;;;21.90;;
46290;SDS011;32023;44.444;26.006;2024-01-30T03:48:02;38.70;;;21.88;;
46290;SDS011;32023;44.444;26.006;2024-01-30T03:50:28;39.78;;;21.92;;
46290;SDS011;32023;44.444;26.006;2024-01-30T03:52:55;41.15;;;22.02;;
46290;SDS011;32023;44.444;26.006;2024-01-30T03:55:21;44.05;;;22.75;;
46290;SDS011;32023;44.444;26.006;2024-01-30T03:57:47;39.30;;;22.15;;
46290;SDS011;32023;44.444;26.006;2024-01-30T04:00:14;46.97;;;21.83;;
46290;SDS011;32023;44.444;26.006;2024-01-30T04:02:43;41.88;;;21.40;;
46290;SDS011;32023;44.444;26.006;2024-01-30T04:05:10;35.75;;;19.65;;
46290;SDS011;32023;44.444;26.006;2024-01-30T04:07:37;39.67;;;21.58;;
46290;SDS011;32023;44.444;26.006;2024-01-30T04:10:03;42.13;;;22.38;;
46290;SDS011;32023;44.444;26.006;2024-01-30T04:12:33;44.20;;;23.17;;
46290;SDS011;32023;44.444;26.006;2024-01-30T04:14:59;45.78;;;24.45;;
46290;SDS011;32023;44.444;26.006;2024-01-30T04:17:25;48.08;;;25.48;;
46290;SDS011;32023;44.444;26.006;2024-01-30T04:19:54;46.78;;;24.02;;
46290;SDS011;32023;44.444;26.006;2024-01-30T04:22:20;47.60;;;24.17;;
46290;SDS011;32023;44.444;26.006;2024-01-30T04:24:46;43.67;;;23.17;;
46290;SDS011;32023;44.444;26.006;2024-01-30T04:27:13;48.10;;;25.58;;
46290;SDS011;32023;44.444;26.006;2024-01-30T04:29:39;48.33;;;24.67;;
46290;SDS011;32023;44.444;26.006;2024-01-30T04:32:05;45.00;;;24.38;;
46290;SDS011;32023;44.444;26.006;2024-01-30T04:34:36;50.40;;;27.20;;
46290;SDS011;32023;44.444;26.006;2024-01-30T04:37:02;42.05;;;22.33;;
46290;SDS011;32023;44.444;26.006;2024-01-30T04:39:29;42.40;;;23.42;;
46290;SDS011;32023;44.444;26.006;2024-01-30T04:41:56;42.60;;;22.83;;
46290;SDS011;32023;44.444;26.006;2024-01-30T04:44:22;42.42;;;23.92;;
46290;SDS011;32023;44.444;26.006;2024-01-30T04:46:49;41.65;;;23.33;;
46290;SDS011;32023;44.444;26.006;2024-01-30T04:49:15;42.17;;;21.88;;
46290;SDS011;32023;44.444;26.006;2024-01-30T04:51:41;40.88;;;22.88;;
46290;SDS011;32023;44.444;26.006;2024-01-30T04:54:08;49.30;;;23.58;;
46290;SDS011;32023;44.444;26.006;2024-01-30T04:56:34;46.55;;;23.90;;
46290;SDS011;32023;44.444;26.006;2024-01-30T04:59:06;46.95;;;23.17;;
46290;SDS011;32023;44.444;26.006;2024-01-30T05:01:33;51.25;;;24.17;;
46290;SDS011;32023;44.444;26.006;2024-01-30T05:04:00;43.97;;;22.58;;
46290;SDS011;32023;44.444;26.006;2024-01-30T05:06:27;45.13;;;23.40;;
46290;SDS011;32023;44.444;26.006;2024-01-30T05:08:54;40.58;;;22.20;;
46290;SDS011;32023;44.444;26.006;2024-01-30T05:11:20;43.15;;;22.15;;
46290;SDS011;32023;44.444;26.006;2024-01-30T05:13:49;44.47;;;23.50;;
46290;SDS011;32023;44.444;26.006;2024-01-30T05:16:38;39.92;;;20.65;;
46290;SDS011;32023;44.444;26.006;2024-01-30T05:19:06;37.53;;;20.17;;
46290;SDS011;32023;44.444;26.006;2024-01-30T05:21:32;39.90;;;20.48;;
46290;SDS011;32023;44.444;26.006;2024-01-30T05:23:59;39.42;;;19.60;;
46290;SDS011;32023;44.444;26.006;2024-01-30T05:26:33;38.70;;;19.50;;
46290;SDS011;32023;44.444;26.006;2024-01-30T05:29:19;33.10;;;18.00;;
46290;SDS011;32023;44.444;26.006;2024-01-30T05:31:45;30.05;;;16.35;;
46290;SDS011;32023;44.444;26.006;2024-01-30T05:34:13;34.53;;;18.70;;
46290;SDS011;32023;44.444;26.006;2024-01-30T05:36:39;31.83;;;17.75;;
46290;SDS011;32023;44.444;26.006;2024-01-30T05:39:05;38.83;;;18.48;;
46290;SDS011;32023;44.444;26.006;2024-01-30T05:41:33;35.45;;;19.45;;
46290;SDS011;32023;44.444;26.006;2024-01-30T05:44:00;29.25;;;17.38;;
46290;SDS011;32023;44.444;26.006;2024-01-30T05:46:26;30.30;;;17.05;;
46290;SDS011;32023;44.444;26.006;2024-01-30T05:48:54;30.40;;;16.30;;
46290;SDS011;32023;44.444;26.006;2024-01-30T05:51:20;31.75;;;16.48;;
46290;SDS011;32023;44.444;26.006;2024-01-30T05:53:47;43.65;;;18.52;;
46290;SDS011;32023;44.444;26.006;2024-01-30T05:56:15;28.85;;;17.40;;
46290;SDS011;32023;44.444;26.006;2024-01-30T05:58:42;33.08;;;16.63;;
46290;SDS011;32023;44.444;26.006;2024-01-30T06:01:09;29.90;;;16.60;;
46290;SDS011;32023;44.444;26.006;2024-01-30T06:03:38;30.58;;;16.15;;
46290;SDS011;32023;44.444;26.006;2024-01-30T06:06:05;33.70;;;17.33;;
46290;SDS011;32023;44.444;26.006;2024-01-30T06:08:32;31.45;;;16.90;;
46290;SDS011;32023;44.444;26.006;2024-01-30T06:10:59;29.48;;;17.25;;
46290;SDS011;32023;44.444;26.006;2024-01-30T06:16:02;34.55;;;16.40;;
46290;SDS011;32023;44.444;26.006;2024-01-30T06:18:28;30.15;;;15.40;;
46290;SDS011;32023;44.444;26.006;2024-01-30T06:20:59;26.98;;;14.27;;
46290;SDS011;32023;44.444;26.006;2024-01-30T06:23:26;27.42;;;14.80;;
46290;SDS011;32023;44.444;26.006;2024-01-30T06:32:13;29.55;;;14.60;;
46290;SDS011;32023;44.444;26.006;2024-01-30T06:37:31;25.08;;;13.43;;
46290;SDS011;32023;44.444;26.006;2024-01-30T06:40:00;22.83;;;12.30;;
46290;SDS011;32023;44.444;26.006;2024-01-30T06:42:27;29.05;;;14.45;;
46290;SDS011;32023;44.444;26.006;2024-01-30T06:45:03;21.90;;;12.25;;
46290;SDS011;32023;44.444;26.006;2024-01-30T06:47:44;23.25;;;12.52;;
46290;SDS011;32023;44.444;26.006;2024-01-30T06:50:11;27.13;;;12.10;;
46290;SDS011;32023;44.444;26.006;2024-01-30T06:52:40;23.42;;;11.93;;
46290;SDS011;32023;44.444;26.006;2024-01-30T06:55:18;19.38;;;11.77;;
46290;SDS011;32023;44.444;26.006;2024-01-30T06:57:49;21.17;;;11.13;;
46290;SDS011;32023;44.444;26.006;2024-01-30T07:00:19;18.90;;;10.55;;
46290;SDS011;32023;44.444;26.006;2024-01-30T07:02:47;21.23;;;10.93;;
46290;SDS011;32023;44.444;26.006;2024-01-30T07:05:21;21.27;;;11.00;;
46290;SDS011;32023;44.444;26.006;2024-01-30T07:07:48;22.98;;;11.85;;
46290;SDS011;32023;44.444;26.006;2024-01-30T07:10:14;24.52;;;12.35;;
46290;SDS011;32023;44.444;26.006;2024-01-30T07:12:41;21.15;;;12.40;;
46290;SDS011;32023;44.444;26.006;2024-01-30T07:15:19;20.75;;;12.65;;
46290;SDS011;32023;44.444;26.006;2024-01-30T07:17:45;24.75;;;13.73;;
46290;SDS011;32023;44.444;26.006;2024-01-30T07:20:20;19.55;;;12.68;;
46290;SDS011;32023;44.444;26.006;2024-01-30T07:22:47;21.05;;;12.55;;
46290;SDS011;32023;44.444;26.006;2024-01-30T07:25:13;23.88;;;12.48;;
46290;SDS011;32023;44.444;26.006;2024-01-30T07:27:43;16.27;;;10.02;;
46290;SDS011;32023;44.444;26.006;2024-01-30T07:30:14;19.02;;;10.88;;
46290;SDS011;32023;44.444;26.006;2024-01-30T07:32:48;23.25;;;12.13;;
46290;SDS011;32023;44.444;26.006;2024-01-30T07:35:17;23.13;;;11.18;;
46290;SDS011;32023;44.444;26.006;2024-01-30T07:37:45;18.52;;;10.82;;
46290;SDS011;32023;44.444;26.006;2024-01-30T07:40:14;15.80;;;10.90;;
46290;SDS011;32023;44.444;26.006;2024-01-30T07:45:41;20.88;;;11.25;;
46290;SDS011;32023;44.444;26.006;2024-01-30T07:48:11;17.73;;;9.48;;
46290;SDS011;32023;44.444;26.006;2024-01-30T07:51:18;20.30;;;10.63;;
46290;SDS011;32023;44.444;26.006;2024-01-30T07:54:22;19.85;;;11.02;;
46290;SDS011;32023;44.444;26.006;2024-01-30T08:00:24;13.35;;;8.55;;
46290;SDS011;32023;44.444;26.006;2024-01-30T08:07:14;15.65;;;9.98;;
46290;SDS011;32023;44.444;26.006;2024-01-30T08:13:16;16.65;;;9.50;;
46290;SDS011;32023;44.444;26.006;2024-01-30T08:15:42;12.38;;;8.30;;
46290;SDS011;32023;44.444;26.006;2024-01-30T08:18:09;15.90;;;8.38;;
46290;SDS011;32023;44.444;26.006;2024-01-30T08:20:40;17.98;;;8.73;;
46290;SDS011;32023;44.444;26.006;2024-01-30T08:23:18;16.92;;;8.35;;
46290;SDS011;32023;44.444;26.006;2024-01-30T08:25:45;14.60;;;8.98;;
46290;SDS011;32023;44.444;26.006;2024-01-30T08:28:17;19.90;;;10.02;;
46290;SDS011;32023;44.444;26.006;2024-01-30T08:30:43;14.90;;;9.05;;
46290;SDS011;32023;44.444;26.006;2024-01-30T08:33:21;15.00;;;9.13;;
46290;SDS011;32023;44.444;26.006;2024-01-30T08:35:48;18.00;;;10.27;;
46290;SDS011;32023;44.444;26.006;2024-01-30T08:38:17;11.50;;;7.05;;
46290;SDS011;32023;44.444;26.006;2024-01-30T08:40:43;10.45;;;6.53;;
46290;SDS011;32023;44.444;26.006;2024-01-30T08:43:15;10.55;;;6.35;;
46290;SDS011;32023;44.444;26.006;2024-01-30T08:45:42;13.23;;;7.03;;
46290;SDS011;32023;44.444;26.006;2024-01-30T08:48:11;13.60;;;7.68;;
46290;SDS011;32023;44.444;26.006;2024-01-30T08:50:37;11.95;;;7.20;;
46290;SDS011;32023;44.444;26.006;2024-01-30T08:53:04;10.65;;;6.10;;
46290;SDS011;32023;44.444;26.006;2024-01-30T08:55:36;10.05;;;5.80;;
46290;SDS011;32023;44.444;26.006;2024-01-30T08:58:04;9.85;;;6.22;;
46290;SDS011;32023;44.444;26.006;2024-01-30T09:00:36;10.77;;;5.72;;
46290;SDS011;32023;44.444;26.006;2024-01-30T09:03:05;12.98;;;6.20;;
46290;SDS011;32023;44.444;26.006;2024-01-30T09:05:34;8.35;;;6.03;;
46290;SDS011;32023;44.444;26.006;2024-01-30T09:10:53;9.60;;;6.22;;
46290;SDS011;32023;44.444;26.006;2024-01-30T09:13:20;8.68;;;6.43;;
46290;SDS011;32023;44.444;26.006;2024-01-30T09:15:55;10.43;;;6.10;;
46290;SDS011;32023;44.444;26.006;2024-01-30T09:18:21;13.80;;;6.20;;
46290;SDS011;32023;44.444;26.006;2024-01-30T09:20:48;10.10;;;7.13;;
46290;SDS011;32023;44.444;26.006;2024-01-30T09:23:17;13.55;;;7.00;;
46290;SDS011;32023;44.444;26.006;2024-01-30T09:25:57;10.25;;;7.22;;
46290;SDS011;32023;44.444;26.006;2024-01-30T09:28:32;9.32;;;6.20;;
46290;SDS011;32023;44.444;26.006;2024-01-30T09:31:02;14.77;;;6.72;;
46290;SDS011;32023;44.444;26.006;2024-01-30T09:33:36;10.13;;;6.78;;
46290;SDS011;32023;44.444;26.006;2024-01-30T09:36:06;8.73;;;6.13;;
46290;SDS011;32023;44.444;26.006;2024-01-30T09:38:39;11.43;;;6.35;;
46290;SDS011;32023;44.444;26.006;2024-01-30T09:41:09;11.60;;;6.30;;
46290;SDS011;32023;44.444;26.006;2024-01-30T09:43:40;13.00;;;7.68;;
46290;SDS011;32023;44.444;26.006;2024-01-30T09:46:15;12.95;;;6.55;;
46290;SDS011;32023;44.444;26.006;2024-01-30T09:48:44;10.55;;;6.70;;
46290;SDS011;32023;44.444;26.006;2024-01-30T09:51:18;9.18;;;5.85;;
46290;SDS011;32023;44.444;26.006;2024-01-30T09:53:46;8.20;;;5.78;;
46290;SDS011;32023;44.444;26.006;2024-01-30T09:56:13;8.63;;;5.70;;
46290;SDS011;32023;44.444;26.006;2024-01-30T09:58:40;14.77;;;6.60;;
46290;SDS011;32023;44.444;26.006;2024-01-30T10:01:10;9.38;;;5.97;;
46290;SDS011;32023;44.444;26.006;2024-01-30T10:03:36;8.88;;;6.43;;
46290;SDS011;32023;44.444;26.006;2024-01-30T10:06:24;11.02;;;5.65;;
46290;SDS011;32023;44.444;26.006;2024-01-30T10:08:59;8.10;;;6.15;;
46290;SDS011;32023;44.444;26.006;2024-01-30T10:11:28;10.73;;;6.95;;
46290;SDS011;32023;44.444;26.006;2024-01-30T10:13:55;11.10;;;6.32;;
46290;SDS011;32023;44.444;26.006;2024-01-30T10:16:29;10.88;;;6.25;;
46290;SDS011;32023;44.444;26.006;2024-01-30T10:18:55;6.90;;;5.70;;
46290;SDS011;32023;44.444;26.006;2024-01-30T10:21:22;11.27;;;7.00;;
46290;SDS011;32023;44.444;26.006;2024-01-30T10:23:49;8.55;;;6.63;;
46290;SDS011;32023;44.444;26.006;2024-01-30T10:26:26;10.68;;;6.35;;
46290;SDS011;32023;44.444;26.006;2024-01-30T10:28:54;11.65;;;6.60;;
46290;SDS011;32023;44.444;26.006;2024-01-30T10:31:20;9.68;;;6.72;;
46290;SDS011;32023;44.444;26.006;2024-01-30T10:33:52;8.55;;;6.72;;
46290;SDS011;32023;44.444;26.006;2024-01-30T10:36:30;9.80;;;7.10;;
46290;SDS011;32023;44.444;26.006;2024-01-30T10:39:07;10.32;;;7.20;;
46290;SDS011;32023;44.444;26.006;2024-01-30T10:41:43;9.98;;;6.82;;
46290;SDS011;32023;44.444;26.006;2024-01-30T10:44:10;10.45;;;7.07;;
46290;SDS011;32023;44.444;26.006;2024-01-30T10:46:38;9.20;;;6.55;;
46290;SDS011;32023;44.444;26.006;2024-01-30T10:49:07;9.13;;;6.32;;
46290;SDS011;32023;44.444;26.006;2024-01-30T10:51:35;10.05;;;6.65;;
46290;SDS011;32023;44.444;26.006;2024-01-30T10:54:08;10.10;;;7.18;;
46290;SDS011;32023;44.444;26.006;2024-01-30T10:56:36;8.68;;;6.85;;
46290;SDS011;32023;44.444;26.006;2024-01-30T10:59:03;10.95;;;6.65;;
46290;SDS011;32023;44.444;26.006;2024-01-30T11:01:39;11.23;;;7.10;;
46290;SDS011;32023;44.444;26.006;2024-01-30T11:04:09;11.35;;;7.60;;
46290;SDS011;32023;44.444;26.006;2024-01-30T11:06:45;10.85;;;7.60;;
46290;SDS011;32023;44.444;26.006;2024-01-30T11:09:19;10.50;;;7.15;;
46290;SDS011;32023;44.444;26.006;2024-01-30T11:11:58;13.63;;;8.18;;
46290;SDS011;32023;44.444;26.006;2024-01-30T11:14:37;11.02;;;8.02;;
46290;SDS011;32023;44.444;26.006;2024-01-30T11:17:06;11.52;;;8.40;;
46290;SDS011;32023;44.444;26.006;2024-01-30T11:19:38;12.50;;;7.38;;
46290;SDS011;32023;44.444;26.006;2024-01-30T11:22:20;12.43;;;7.22;;
46290;SDS011;32023;44.444;26.006;2024-01-30T11:24:46;9.20;;;7.05;;
46290;SDS011;32023;44.444;26.006;2024-01-30T11:27:20;13.50;;;7.53;;
46290;SDS011;32023;44.444;26.006;2024-01-30T11:29:49;8.57;;;7.10;;
46290;SDS011;32023;44.444;26.006;2024-01-30T11:32:22;9.40;;;7.75;;
46290;SDS011;32023;44.444;26.006;2024-01-30T11:34:59;9.13;;;7.25;;
46290;SDS011;32023;44.444;26.006;2024-01-30T11:37:29;8.43;;;7.50;;
46290;SDS011;32023;44.444;26.006;2024-01-30T11:39:57;8.48;;;7.57;;
46290;SDS011;32023;44.444;26.006;2024-01-30T11:42:33;8.38;;;7.40;;
46290;SDS011;32023;44.444;26.006;2024-01-30T11:45:18;8.77;;;7.88;;
46290;SDS011;32023;44.444;26.006;2024-01-30T11:47:47;9.30;;;8.10;;
46290;SDS011;32023;44.444;26.006;2024-01-30T11:50:14;10.43;;;7.72;;
46290;SDS011;32023;44.444;26.006;2024-01-30T11:52:44;8.85;;;7.95;;
46290;SDS011;32023;44.444;26.006;2024-01-30T11:55:14;12.93;;;8.52;;
46290;SDS011;32023;44.444;26.006;2024-01-30T11:57:41;10.10;;;8.68;;
46290;SDS011;32023;44.444;26.006;2024-01-30T12:00:18;9.82;;;8.68;;
46290;SDS011;32023;44.444;26.006;2024-01-30T12:02:49;10.48;;;9.30;;
46290;SDS011;32023;44.444;26.006;2024-01-30T12:05:28;10.43;;;9.15;;
46290;SDS011;32023;44.444;26.006;2024-01-30T12:07:55;12.05;;;9.45;;
46290;SDS011;32023;44.444;26.006;2024-01-30T12:10:24;11.80;;;9.20;;
46290;SDS011;32023;44.444;26.006;2024-01-30T12:12:50;10.15;;;8.82;;
46290;SDS011;32023;44.444;26.006;2024-01-30T12:15:18;13.38;;;9.57;;
46290;SDS011;32023;44.444;26.006;2024-01-30T12:17:46;12.18;;;9.25;;
46290;SDS011;32023;44.444;26.006;2024-01-30T12:20:13;11.52;;;9.15;;
46290;SDS011;32023;44.444;26.006;2024-01-30T12:22:43;12.75;;;9.52;;
46290;SDS011;32023;44.444;26.006;2024-01-30T12:25:13;11.40;;;9.82;;
46290;SDS011;32023;44.444;26.006;2024-01-30T12:27:45;10.75;;;9.65;;
46290;SDS011;32023;44.444;26.006;2024-01-30T12:30:16;12.73;;;9.55;;
46290;SDS011;32023;44.444;26.006;2024-01-30T12:32:45;13.55;;;9.90;;
46290;SDS011;32023;44.444;26.006;2024-01-30T12:35:18;14.55;;;10.25;;
46290;SDS011;32023;44.444;26.006;2024-01-30T12:37:46;13.38;;;10.65;;
46290;SDS011;32023;44.444;26.006;2024-01-30T12:40:14;12.55;;;10.48;;
46290;SDS011;32023;44.444;26.006;2024-01-30T12:42:40;15.90;;;9.13;;
46290;SDS011;32023;44.444;26.006;2024-01-30T12:45:16;11.10;;;9.88;;
46290;SDS011;32023;44.444;26.006;2024-01-30T12:47:47;13.13;;;10.65;;
46290;SDS011;32023;44.444;26.006;2024-01-30T12:50:16;11.00;;;9.40;;
46290;SDS011;32023;44.444;26.006;2024-01-30T12:52:44;10.75;;;8.82;;
46290;SDS011;32023;44.444;26.006;2024-01-30T12:55:11;11.70;;;9.43;;
46290;SDS011;32023;44.444;26.006;2024-01-30T12:57:44;11.73;;;9.50;;
46290;SDS011;32023;44.444;26.006;2024-01-30T13:00:20;12.07;;;9.18;;
46290;SDS011;32023;44.444;26.006;2024-01-30T13:02:49;11.88;;;9.15;;
46290;SDS011;32023;44.444;26.006;2024-01-30T13:05:19;13.60;;;10.52;;
46290;SDS011;32023;44.444;26.006;2024-01-30T13:07:48;15.05;;;10.93;;
46290;SDS011;32023;44.444;26.006;2024-01-30T13:10:34;12.80;;;10.55;;
46290;SDS011;32023;44.444;26.006;2024-01-30T13:13:19;14.07;;;10.18;;
46290;SDS011;32023;44.444;26.006;2024-01-30T13:15:45;15.90;;;11.10;;
46290;SDS011;32023;44.444;26.006;2024-01-30T13:18:12;14.07;;;10.45;;
46290;SDS011;32023;44.444;26.006;2024-01-30T13:20:39;17.55;;;10.35;;
46290;SDS011;32023;44.444;26.006;2024-01-30T13:23:05;14.75;;;10.35;;
46290;SDS011;32023;44.444;26.006;2024-01-30T13:25:31;14.57;;;10.98;;
46290;SDS011;32023;44.444;26.006;2024-01-30T13:27:58;14.90;;;10.07;;
46290;SDS011;32023;44.444;26.006;2024-01-30T13:30:24;16.75;;;10.88;;
46290;SDS011;32023;44.444;26.006;2024-01-30T13:32:53;15.93;;;10.38;;
46290;SDS011;32023;44.444;26.006;2024-01-30T13:35:20;15.57;;;10.32;;
46290;SDS011;32023;44.444;26.006;2024-01-30T13:37:46;17.40;;;10.40;;
46290;SDS011;32023;44.444;26.006;2024-01-30T13:40:13;18.63;;;10.60;;
46290;SDS011;32023;44.444;26.006;2024-01-30T13:42:41;17.13;;;10.52;;
46290;SDS011;32023;44.444;26.006;2024-01-30T13:45:10;19.73;;;11.98;;
46290;SDS011;32023;44.444;26.006;2024-01-30T13:47:36;13.82;;;9.63;;
46290;SDS011;32023;44.444;26.006;2024-01-30T13:50:03;17.77;;;11.13;;
46290;SDS011;32023;44.444;26.006;2024-01-30T13:52:33;17.38;;;10.68;;
46290;SDS011;32023;44.444;26.006;2024-01-30T13:54:59;19.67;;;11.13;;
46290;SDS011;32023;44.444;26.006;2024-01-30T13:57:26;14.45;;;10.93;;
46290;SDS011;32023;44.444;26.006;2024-01-30T13:59:52;16.55;;;10.52;;
46290;SDS011;32023;44.444;26.006;2024-01-30T14:02:32;18.15;;;9.98;;
46290;SDS011;32023;44.444;26.006;2024-01-30T14:04:59;20.02;;;11.13;;
46290;SDS011;32023;44.444;26.006;2024-01-30T14:07:41;17.77;;;11.68;;
46290;SDS011;32023;44.444;26.006;2024-01-30T14:10:13;21.48;;;11.98;;
46290;SDS011;32023;44.444;26.006;2024-01-30T14:12:43;18.05;;;11.63;;
46290;SDS011;32023;44.444;26.006;2024-01-30T14:15:13;16.98;;;11.63;;
46290;SDS011;32023;44.444;26.006;2024-01-30T14:17:53;18.13;;;11.57;;
46290;SDS011;32023;44.444;26.006;2024-01-30T14:20:20;24.00;;;12.20;;
46290;SDS011;32023;44.444;26.006;2024-01-30T14:22:46;19.73;;;12.30;;
46290;SDS011;32023;44.444;26.006;2024-01-30T14:25:22;18.17;;;11.55;;
46290;SDS011;32023;44.444;26.006;2024-01-30T14:27:57;18.60;;;12.93;;
46290;SDS011;32023;44.444;26.006;2024-01-30T14:30:50;23.23;;;14.15;;
46290;SDS011;32023;44.444;26.006;2024-01-30T14:33:30;21.17;;;14.02;;
46290;SDS011;32023;44.444;26.006;2024-01-30T14:35:56;21.90;;;12.88;;
46290;SDS011;32023;44.444;26.006;2024-01-30T14:38:23;20.15;;;12.27;;
46290;SDS011;32023;44.444;26.006;2024-01-30T14:40:53;20.80;;;13.80;;
46290;SDS011;32023;44.444;26.006;2024-01-30T14:43:19;21.73;;;12.88;;
46290;SDS011;32023;44.444;26.006;2024-01-30T14:45:48;22.55;;;13.63;;
46290;SDS011;32023;44.444;26.006;2024-01-30T14:48:17;24.85;;;13.93;;
46290;SDS011;32023;44.444;26.006;2024-01-30T14:50:46;22.48;;;14.35;;
46290;SDS011;32023;44.444;26.006;2024-01-30T14:53:13;25.23;;;14.20;;